sensor_id;sensor_type;location;lat;lon;timestamp;P1;durP1;ratioP1;P2;durP2;ratioP2
27642;SDS011;15053;48.618;10.024;2024-01-27T00:00:18;12.27;;;5.97;;
27642;SDS011;15053;48.618;10.024;2024-01-27T00:02:45;12.35;;;6.55;;
27642;SDS011;15053;48.618;10.024;2024-01-27T00:05:12;11.05;;;7.07;;
27642;SDS011;15053;48.618;10.024;2024-01-27T00:07:39;12.60;;;6.38;;
27642;SDS011;15053;48.618;10.024;2024-01-27T00:10:06;14.13;;;6.53;;
27642;SDS011;15053;48.618;10.024;2024-01-27T00:12:33;8.40;;;4.63;;
27642;SDS011;15053;48.618;10.024;2024-01-27T00:15:00;9.07;;;4.45;;
27642;SDS011;15053;48.618;10.024;2024-01-27T00:17:26;8.75;;;3.78;;
27642;SDS011;15053;48.618;10.024;2024-01-27T00:19:54;13.75;;;3.58;;
27642;SDS011;15053;48.618;10.024;2024-01-27T00:22:21;9.82;;;3.55;;
27642;SDS011;15053;48.618;10.024;2024-01-27T00:24:47;8.57;;;4.13;;
27642;SDS011;15053;48.618;10.024;2024-01-27T00:27:14;12.48;;;4.85;;
27642;SDS011;15053;48.618;10.024;2024-01-27T00:29:41;9.40;;;4.38;;
27642;SDS011;15053;48.618;10.024;2024-01-27T00:32:07;6.95;;;3.80;;
27642;SDS011;15053;48.618;10.024;2024-01-27T00:34:34;5.40;;;3.40;;
27642;SDS011;15053;48.618;10.024;2024-01-27T00:37:00;10.30;;;3.78;;
27642;SDS011;15053;48.618;10.024;2024-01-27T00:39:27;7.28;;;4.35;;
27642;SDS011;15053;48.618;10.024;2024-01-27T00:41:54;8.05;;;3.47;;
27642;SDS011;15053;48.618;10.024;2024-01-27T00:44:21;7.85;;;3.83;;
27642;SDS011;15053;48.618;10.024;2024-01-27T00:46:48;8.43;;;3.85;;
27642;SDS011;15053;48.618;10.024;2024-01-27T00:49:14;11.02;;;3.40;;
27642;SDS011;15053;48.618;10.024;2024-01-27T00:51:41;11.98;;;4.25;;
27642;SDS011;15053;48.618;10.024;2024-01-27T00:54:08;9.40;;;4.75;;
27642;SDS011;15053;48.618;10.024;2024-01-27T00:56:35;8.18;;;4.53;;
27642;SDS011;15053;48.618;10.024;2024-01-27T00:59:01;8.57;;;3.53;;
27642;SDS011;15053;48.618;10.024;2024-01-27T01:01:28;6.43;;;3.55;;
27642;SDS011;15053;48.618;10.024;2024-01-27T01:03:54;6.47;;;3.85;;
27642;SDS011;15053;48.618;10.024;2024-01-27T01:06:21;6.93;;;3.13;;
27642;SDS011;15053;48.618;10.024;2024-01-27T01:08:48;11.82;;;3.95;;
27642;SDS011;15053;48.618;10.024;2024-01-27T01:11:15;9.30;;;3.55;;
27642;SDS011;15053;48.618;10.024;2024-01-27T01:13:41;7.63;;;4.15;;
27642;SDS011;15053;48.618;10.024;2024-01-27T01:16:07;8.32;;;3.53;;
27642;SDS011;15053;48.618;10.024;2024-01-27T01:18:34;10.32;;;3.45;;
27642;SDS011;15053;48.618;10.024;2024-01-27T01:21:01;8.23;;;3.10;;
27642;SDS011;15053;48.618;10.024;2024-01-27T01:23:27;8.70;;;3.83;;
27642;SDS011;15053;48.618;10.024;2024-01-27T01:25:54;6.97;;;3.88;;
27642;SDS011;15053;48.618;10.024;2024-01-27T01:28:20;16.70;;;4.18;;
27642;SDS011;15053;48.618;10.024;2024-01-27T01:30:47;8.82;;;3.78;;
27642;SDS011;15053;48.618;10.024;2024-01-27T01:33:14;11.35;;;3.65;;
27642;SDS011;15053;48.618;10.024;2024-01-27T01:35:41;10.25;;;3.17;;
27642;SDS011;15053;48.618;10.024;2024-01-27T01:38:07;6.35;;;3.20;;
27642;SDS011;15053;48.618;10.024;2024-01-27T01:40:34;9.60;;;3.05;;
27642;SDS011;15053;48.618;10.024;2024-01-27T01:43:00;15.80;;;3.28;;
27642;SDS011;15053;48.618;10.024;2024-01-27T01:45:27;8.82;;;3.28;;
27642;SDS011;15053;48.618;10.024;2024-01-27T01:47:53;5.93;;;3.08;;
27642;SDS011;15053;48.618;10.024;2024-01-27T01:50:20;6.32;;;3.53;;
27642;SDS011;15053;48.618;10.024;2024-01-27T01:52:48;6.30;;;2.83;;
27642;SDS011;15053;48.618;10.024;2024-01-27T01:55:15;8.82;;;2.70;;
27642;SDS011;15053;48.618;10.024;2024-01-27T01:57:43;7.25;;;2.78;;
27642;SDS011;15053;48.618;10.024;2024-01-27T02:00:10;8.27;;;2.67;;
27642;SDS011;15053;48.618;10.024;2024-01-27T02:02:38;9.57;;;3.25;;
27642;SDS011;15053;48.618;10.024;2024-01-27T02:05:05;6.63;;;2.58;;
27642;SDS011;15053;48.618;10.024;2024-01-27T02:07:32;10.18;;;2.97;;
27642;SDS011;15053;48.618;10.024;2024-01-27T02:09:58;7.90;;;3.90;;
27642;SDS011;15053;48.618;10.024;2024-01-27T02:12:25;6.72;;;3.20;;
27642;SDS011;15053;48.618;10.024;2024-01-27T02:14:52;7.70;;;2.80;;
27642;SDS011;15053;48.618;10.024;2024-01-27T02:17:18;6.82;;;3.15;;
27642;SDS011;15053;48.618;10.024;2024-01-27T02:19:45;8.70;;;3.20;;
27642;SDS011;15053;48.618;10.024;2024-01-27T02:22:11;8.07;;;2.90;;
27642;SDS011;15053;48.618;10.024;2024-01-27T02:24:38;12.93;;;3.65;;
27642;SDS011;15053;48.618;10.024;2024-01-27T02:27:04;11.00;;;3.90;;
27642;SDS011;15053;48.618;10.024;2024-01-27T02:29:31;12.00;;;4.32;;
27642;SDS011;15053;48.618;10.024;2024-01-27T02:31:57;18.00;;;3.88;;
27642;SDS011;15053;48.618;10.024;2024-01-27T02:34:24;11.75;;;4.07;;
27642;SDS011;15053;48.618;10.024;2024-01-27T02:36:51;9.48;;;4.00;;
27642;SDS011;15053;48.618;10.024;2024-01-27T02:39:17;8.02;;;3.90;;
27642;SDS011;15053;48.618;10.024;2024-01-27T02:41:44;10.68;;;3.88;;
27642;SDS011;15053;48.618;10.024;2024-01-27T02:44:10;10.48;;;3.90;;
27642;SDS011;15053;48.618;10.024;2024-01-27T02:46:37;8.25;;;3.83;;
27642;SDS011;15053;48.618;10.024;2024-01-27T02:49:03;11.13;;;3.50;;
27642;SDS011;15053;48.618;10.024;2024-01-27T02:51:30;7.97;;;4.22;;
27642;SDS011;15053;48.618;10.024;2024-01-27T02:53:57;9.85;;;3.75;;
27642;SDS011;15053;48.618;10.024;2024-01-27T02:56:23;11.95;;;3.88;;
27642;SDS011;15053;48.618;10.024;2024-01-27T02:58:50;7.28;;;3.67;;
27642;SDS011;15053;48.618;10.024;2024-01-27T03:01:17;10.18;;;3.97;;
27642;SDS011;15053;48.618;10.024;2024-01-27T03:03:43;9.27;;;3.75;;
27642;SDS011;15053;48.618;10.024;2024-01-27T03:06:10;7.53;;;3.50;;
27642;SDS011;15053;48.618;10.024;2024-01-27T03:08:37;13.73;;;3.42;;
27642;SDS011;15053;48.618;10.024;2024-01-27T03:11:03;11.23;;;4.38;;
27642;SDS011;15053;48.618;10.024;2024-01-27T03:13:30;11.70;;;3.95;;
27642;SDS011;15053;48.618;10.024;2024-01-27T03:15:57;14.38;;;4.38;;
27642;SDS011;15053;48.618;10.024;2024-01-27T03:18:23;13.52;;;4.40;;
27642;SDS011;15053;48.618;10.024;2024-01-27T03:20:51;11.68;;;4.20;;
27642;SDS011;15053;48.618;10.024;2024-01-27T03:23:18;8.48;;;3.70;;
27642;SDS011;15053;48.618;10.024;2024-01-27T03:25:45;16.13;;;4.22;;
27642;SDS011;15053;48.618;10.024;2024-01-27T03:28:12;11.68;;;4.43;;
27642;SDS011;15053;48.618;10.024;2024-01-27T03:30:38;10.98;;;4.60;;
27642;SDS011;15053;48.618;10.024;2024-01-27T03:33:05;10.70;;;3.90;;
27642;SDS011;15053;48.618;10.024;2024-01-27T03:35:33;11.32;;;4.20;;
27642;SDS011;15053;48.618;10.024;2024-01-27T03:37:59;10.05;;;4.15;;
27642;SDS011;15053;48.618;10.024;2024-01-27T03:40:30;12.30;;;5.50;;
27642;SDS011;15053;48.618;10.024;2024-01-27T03:42:56;16.30;;;6.60;;
27642;SDS011;15053;48.618;10.024;2024-01-27T03:45:23;21.77;;;6.97;;
27642;SDS011;15053;48.618;10.024;2024-01-27T03:47:50;13.18;;;5.55;;
27642;SDS011;15053;48.618;10.024;2024-01-27T03:50:17;12.68;;;5.75;;
27642;SDS011;15053;48.618;10.024;2024-01-27T03:52:43;14.27;;;6.28;;
27642;SDS011;15053;48.618;10.024;2024-01-27T03:55:10;14.75;;;7.53;;
27642;SDS011;15053;48.618;10.024;2024-01-27T03:57:36;22.55;;;7.63;;
27642;SDS011;15053;48.618;10.024;2024-01-27T04:00:03;15.80;;;7.47;;
27642;SDS011;15053;48.618;10.024;2024-01-27T04:02:31;25.10;;;10.93;;
27642;SDS011;15053;48.618;10.024;2024-01-27T04:04:58;25.05;;;9.82;;
27642;SDS011;15053;48.618;10.024;2024-01-27T04:07:24;14.45;;;6.15;;
27642;SDS011;15053;48.618;10.024;2024-01-27T04:09:51;15.75;;;7.32;;
27642;SDS011;15053;48.618;10.024;2024-01-27T04:12:17;18.85;;;9.32;;
27642;SDS011;15053;48.618;10.024;2024-01-27T04:14:44;14.95;;;6.00;;
27642;SDS011;15053;48.618;10.024;2024-01-27T04:17:10;12.02;;;6.50;;
27642;SDS011;15053;48.618;10.024;2024-01-27T04:19:37;12.63;;;5.28;;
27642;SDS011;15053;48.618;10.024;2024-01-27T04:22:04;15.07;;;6.80;;
27642;SDS011;15053;48.618;10.024;2024-01-27T04:24:30;17.80;;;7.07;;
27642;SDS011;15053;48.618;10.024;2024-01-27T04:26:59;13.77;;;6.13;;
27642;SDS011;15053;48.618;10.024;2024-01-27T04:31:55;18.52;;;4.78;;
27642;SDS011;15053;48.618;10.024;2024-01-27T04:34:21;8.70;;;4.05;;
27642;SDS011;15053;48.618;10.024;2024-01-27T04:36:48;11.00;;;4.63;;
27642;SDS011;15053;48.618;10.024;2024-01-27T04:39:15;11.45;;;4.82;;
27642;SDS011;15053;48.618;10.024;2024-01-27T04:41:42;15.82;;;5.45;;
27642;SDS011;15053;48.618;10.024;2024-01-27T04:44:10;15.38;;;5.47;;
27642;SDS011;15053;48.618;10.024;2024-01-27T04:46:37;13.75;;;4.75;;
27642;SDS011;15053;48.618;10.024;2024-01-27T04:49:03;11.45;;;5.72;;
27642;SDS011;15053;48.618;10.024;2024-01-27T04:51:30;10.85;;;5.10;;
27642;SDS011;15053;48.618;10.024;2024-01-27T04:53:57;13.75;;;5.20;;
27642;SDS011;15053;48.618;10.024;2024-01-27T04:56:23;10.05;;;4.90;;
27642;SDS011;15053;48.618;10.024;2024-01-27T04:58:50;15.40;;;4.50;;
27642;SDS011;15053;48.618;10.024;2024-01-27T05:01:16;16.42;;;4.75;;
27642;SDS011;15053;48.618;10.024;2024-01-27T05:03:43;14.20;;;4.32;;
27642;SDS011;15053;48.618;10.024;2024-01-27T05:06:11;7.78;;;3.90;;
27642;SDS011;15053;48.618;10.024;2024-01-27T05:08:38;14.10;;;3.53;;
27642;SDS011;15053;48.618;10.024;2024-01-27T05:11:06;7.43;;;3.70;;
27642;SDS011;15053;48.618;10.024;2024-01-27T05:13:32;9.55;;;4.05;;
27642;SDS011;15053;48.618;10.024;2024-01-27T05:15:59;7.07;;;3.72;;
27642;SDS011;15053;48.618;10.024;2024-01-27T05:18:26;11.73;;;3.60;;
27642;SDS011;15053;48.618;10.024;2024-01-27T05:20:52;9.18;;;3.35;;
27642;SDS011;15053;48.618;10.024;2024-01-27T05:23:19;12.45;;;3.85;;
27642;SDS011;15053;48.618;10.024;2024-01-27T05:25:45;19.58;;;3.70;;
27642;SDS011;15053;48.618;10.024;2024-01-27T05:28:12;11.95;;;3.70;;
27642;SDS011;15053;48.618;10.024;2024-01-27T05:30:38;17.27;;;4.03;;
27642;SDS011;15053;48.618;10.024;2024-01-27T05:33:05;17.95;;;4.65;;
27642;SDS011;15053;48.618;10.024;2024-01-27T05:35:32;15.75;;;4.10;;
27642;SDS011;15053;48.618;10.024;2024-01-27T05:37:58;10.48;;;4.50;;
27642;SDS011;15053;48.618;10.024;2024-01-27T05:40:25;16.30;;;4.45;;
27642;SDS011;15053;48.618;10.024;2024-01-27T05:42:51;8.25;;;4.38;;
27642;SDS011;15053;48.618;10.024;2024-01-27T05:45:18;14.30;;;5.10;;
27642;SDS011;15053;48.618;10.024;2024-01-27T05:47:44;11.00;;;4.18;;
27642;SDS011;15053;48.618;10.024;2024-01-27T05:50:11;8.90;;;4.00;;
27642;SDS011;15053;48.618;10.024;2024-01-27T05:52:38;13.52;;;4.47;;
27642;SDS011;15053;48.618;10.024;2024-01-27T05:55:04;10.13;;;4.22;;
27642;SDS011;15053;48.618;10.024;2024-01-27T05:57:33;7.78;;;3.53;;
27642;SDS011;15053;48.618;10.024;2024-01-27T06:00:00;13.98;;;4.32;;
27642;SDS011;15053;48.618;10.024;2024-01-27T06:02:30;13.35;;;3.95;;
27642;SDS011;15053;48.618;10.024;2024-01-27T06:04:56;10.05;;;3.95;;
27642;SDS011;15053;48.618;10.024;2024-01-27T06:07:23;17.80;;;4.93;;
27642;SDS011;15053;48.618;10.024;2024-01-27T06:09:49;13.27;;;4.53;;
27642;SDS011;15053;48.618;10.024;2024-01-27T06:12:16;13.50;;;3.90;;
27642;SDS011;15053;48.618;10.024;2024-01-27T06:14:43;7.97;;;4.40;;
27642;SDS011;15053;48.618;10.024;2024-01-27T06:17:09;12.13;;;4.75;;
27642;SDS011;15053;48.618;10.024;2024-01-27T06:19:36;14.40;;;4.35;;
27642;SDS011;15053;48.618;10.024;2024-01-27T06:22:04;12.82;;;4.57;;
27642;SDS011;15053;48.618;10.024;2024-01-27T06:24:32;10.73;;;4.93;;
27642;SDS011;15053;48.618;10.024;2024-01-27T06:26:58;11.50;;;4.30;;
27642;SDS011;15053;48.618;10.024;2024-01-27T06:29:25;12.90;;;4.80;;
27642;SDS011;15053;48.618;10.024;2024-01-27T06:31:53;14.07;;;4.85;;
27642;SDS011;15053;48.618;10.024;2024-01-27T06:34:19;9.57;;;3.97;;
27642;SDS011;15053;48.618;10.024;2024-01-27T06:36:47;13.73;;;4.47;;
27642;SDS011;15053;48.618;10.024;2024-01-27T06:39:13;16.20;;;4.40;;
27642;SDS011;15053;48.618;10.024;2024-01-27T06:41:40;12.40;;;4.47;;
27642;SDS011;15053;48.618;10.024;2024-01-27T06:44:06;11.00;;;4.93;;
27642;SDS011;15053;48.618;10.024;2024-01-27T06:46:34;10.80;;;5.25;;
27642;SDS011;15053;48.618;10.024;2024-01-27T06:49:00;16.80;;;4.80;;
27642;SDS011;15053;48.618;10.024;2024-01-27T06:51:27;12.10;;;4.70;;
27642;SDS011;15053;48.618;10.024;2024-01-27T06:53:53;15.50;;;4.95;;
27642;SDS011;15053;48.618;10.024;2024-01-27T06:56:20;13.52;;;4.40;;
27642;SDS011;15053;48.618;10.024;2024-01-27T06:58:47;20.27;;;6.53;;
27642;SDS011;15053;48.618;10.024;2024-01-27T07:01:13;25.83;;;8.75;;
27642;SDS011;15053;48.618;10.024;2024-01-27T07:03:40;29.52;;;13.15;;
27642;SDS011;15053;48.618;10.024;2024-01-27T07:06:07;21.73;;;8.98;;
27642;SDS011;15053;48.618;10.024;2024-01-27T07:08:33;17.67;;;5.53;;
27642;SDS011;15053;48.618;10.024;2024-01-27T07:11:04;12.38;;;6.07;;
27642;SDS011;15053;48.618;10.024;2024-01-27T07:13:30;12.60;;;6.15;;
27642;SDS011;15053;48.618;10.024;2024-01-27T07:15:57;17.08;;;6.43;;
27642;SDS011;15053;48.618;10.024;2024-01-27T07:18:24;19.15;;;6.20;;
27642;SDS011;15053;48.618;10.024;2024-01-27T07:20:51;14.88;;;6.43;;
27642;SDS011;15053;48.618;10.024;2024-01-27T07:23:17;15.90;;;5.53;;
27642;SDS011;15053;48.618;10.024;2024-01-27T07:25:44;11.77;;;4.80;;
27642;SDS011;15053;48.618;10.024;2024-01-27T07:28:10;10.85;;;5.05;;
27642;SDS011;15053;48.618;10.024;2024-01-27T07:30:37;11.30;;;3.97;;
27642;SDS011;15053;48.618;10.024;2024-01-27T07:33:04;9.88;;;4.43;;
27642;SDS011;15053;48.618;10.024;2024-01-27T07:35:31;11.30;;;4.63;;
27642;SDS011;15053;48.618;10.024;2024-01-27T07:37:58;16.33;;;4.82;;
27642;SDS011;15053;48.618;10.024;2024-01-27T07:40:24;12.07;;;4.60;;
27642;SDS011;15053;48.618;10.024;2024-01-27T07:42:51;15.77;;;5.63;;
27642;SDS011;15053;48.618;10.024;2024-01-27T07:45:18;14.88;;;7.15;;
27642;SDS011;15053;48.618;10.024;2024-01-27T07:47:44;20.45;;;7.90;;
27642;SDS011;15053;48.618;10.024;2024-01-27T07:50:11;18.92;;;7.85;;
27642;SDS011;15053;48.618;10.024;2024-01-27T07:52:38;23.13;;;8.88;;
27642;SDS011;15053;48.618;10.024;2024-01-27T07:55:05;19.13;;;5.65;;
27642;SDS011;15053;48.618;10.024;2024-01-27T07:57:32;14.95;;;5.63;;
27642;SDS011;15053;48.618;10.024;2024-01-27T07:59:59;22.58;;;7.30;;
27642;SDS011;15053;48.618;10.024;2024-01-27T08:02:25;18.42;;;6.47;;
27642;SDS011;15053;48.618;10.024;2024-01-27T08:04:53;10.88;;;4.80;;
27642;SDS011;15053;48.618;10.024;2024-01-27T08:07:19;20.63;;;5.70;;
27642;SDS011;15053;48.618;10.024;2024-01-27T08:09:46;16.27;;;5.68;;
27642;SDS011;15053;48.618;10.024;2024-01-27T08:12:12;19.73;;;5.63;;
27642;SDS011;15053;48.618;10.024;2024-01-27T08:14:39;13.18;;;4.95;;
27642;SDS011;15053;48.618;10.024;2024-01-27T08:17:05;11.65;;;4.45;;
27642;SDS011;15053;48.618;10.024;2024-01-27T08:19:32;14.45;;;4.25;;
27642;SDS011;15053;48.618;10.024;2024-01-27T08:21:59;10.20;;;4.75;;
27642;SDS011;15053;48.618;10.024;2024-01-27T08:24:26;15.60;;;4.63;;
27642;SDS011;15053;48.618;10.024;2024-01-27T08:26:52;10.93;;;4.65;;
27642;SDS011;15053;48.618;10.024;2024-01-27T08:29:19;14.35;;;5.68;;
27642;SDS011;15053;48.618;10.024;2024-01-27T08:31:46;19.60;;;4.90;;
27642;SDS011;15053;48.618;10.024;2024-01-27T08:34:12;14.32;;;5.10;;
27642;SDS011;15053;48.618;10.024;2024-01-27T08:36:39;11.63;;;6.32;;
27642;SDS011;15053;48.618;10.024;2024-01-27T08:39:06;20.60;;;5.35;;
27642;SDS011;15053;48.618;10.024;2024-01-27T08:41:38;12.18;;;4.80;;
27642;SDS011;15053;48.618;10.024;2024-01-27T08:44:05;16.58;;;5.47;;
27642;SDS011;15053;48.618;10.024;2024-01-27T08:46:31;15.80;;;5.18;;
27642;SDS011;15053;48.618;10.024;2024-01-27T08:48:58;12.73;;;4.55;;
27642;SDS011;15053;48.618;10.024;2024-01-27T08:51:25;15.00;;;5.38;;
27642;SDS011;15053;48.618;10.024;2024-01-27T08:53:51;13.27;;;4.80;;
27642;SDS011;15053;48.618;10.024;2024-01-27T08:56:18;11.15;;;4.95;;
27642;SDS011;15053;48.618;10.024;2024-01-27T08:58:44;19.67;;;5.28;;
27642;SDS011;15053;48.618;10.024;2024-01-27T09:01:15;10.88;;;4.90;;
27642;SDS011;15053;48.618;10.024;2024-01-27T09:03:42;10.88;;;5.00;;
27642;SDS011;15053;48.618;10.024;2024-01-27T09:06:09;15.00;;;4.63;;
27642;SDS011;15053;48.618;10.024;2024-01-27T09:08:36;7.45;;;4.43;;
27642;SDS011;15053;48.618;10.024;2024-01-27T09:11:03;11.32;;;4.85;;
27642;SDS011;15053;48.618;10.024;2024-01-27T09:13:29;16.10;;;4.53;;
27642;SDS011;15053;48.618;10.024;2024-01-27T09:15:56;20.35;;;4.93;;
27642;SDS011;15053;48.618;10.024;2024-01-27T09:18:23;18.85;;;5.22;;
27642;SDS011;15053;48.618;10.024;2024-01-27T09:20:53;13.23;;;4.90;;
27642;SDS011;15053;48.618;10.024;2024-01-27T09:23:20;11.35;;;5.45;;
27642;SDS011;15053;48.618;10.024;2024-01-27T09:25:46;18.65;;;7.53;;
27642;SDS011;15053;48.618;10.024;2024-01-27T09:28:13;10.77;;;5.13;;
27642;SDS011;15053;48.618;10.024;2024-01-27T09:30:40;15.45;;;4.97;;
27642;SDS011;15053;48.618;10.024;2024-01-27T09:33:07;14.95;;;5.35;;
27642;SDS011;15053;48.618;10.024;2024-01-27T09:35:34;13.48;;;5.20;;
27642;SDS011;15053;48.618;10.024;2024-01-27T09:38:00;13.77;;;5.05;;
27642;SDS011;15053;48.618;10.024;2024-01-27T09:40:27;16.08;;;5.68;;
27642;SDS011;15053;48.618;10.024;2024-01-27T09:42:54;10.13;;;4.82;;
27642;SDS011;15053;48.618;10.024;2024-01-27T09:45:24;9.55;;;4.68;;
27642;SDS011;15053;48.618;10.024;2024-01-27T09:47:52;16.65;;;4.93;;
27642;SDS011;15053;48.618;10.024;2024-01-27T09:50:20;9.88;;;5.05;;
27642;SDS011;15053;48.618;10.024;2024-01-27T09:52:48;11.23;;;4.40;;
27642;SDS011;15053;48.618;10.024;2024-01-27T09:55:14;11.95;;;4.65;;
27642;SDS011;15053;48.618;10.024;2024-01-27T09:57:41;8.80;;;4.68;;
27642;SDS011;15053;48.618;10.024;2024-01-27T10:00:09;12.85;;;4.97;;
27642;SDS011;15053;48.618;10.024;2024-01-27T10:02:39;14.07;;;4.78;;
27642;SDS011;15053;48.618;10.024;2024-01-27T10:05:08;17.67;;;4.97;;
27642;SDS011;15053;48.618;10.024;2024-01-27T10:07:35;13.43;;;5.03;;
27642;SDS011;15053;48.618;10.024;2024-01-27T10:10:01;11.20;;;5.28;;
27642;SDS011;15053;48.618;10.024;2024-01-27T10:12:28;14.68;;;5.07;;
27642;SDS011;15053;48.618;10.024;2024-01-27T10:14:55;8.70;;;4.93;;
27642;SDS011;15053;48.618;10.024;2024-01-27T10:17:22;18.15;;;5.10;;
27642;SDS011;15053;48.618;10.024;2024-01-27T10:19:59;15.90;;;5.15;;
27642;SDS011;15053;48.618;10.024;2024-01-27T10:22:27;11.38;;;5.18;;
27642;SDS011;15053;48.618;10.024;2024-01-27T10:24:54;13.05;;;4.82;;
27642;SDS011;15053;48.618;10.024;2024-01-27T10:27:22;16.63;;;5.63;;
27642;SDS011;15053;48.618;10.024;2024-01-27T10:29:52;9.77;;;5.05;;
27642;SDS011;15053;48.618;10.024;2024-01-27T10:32:20;12.90;;;5.78;;
27642;SDS011;15053;48.618;10.024;2024-01-27T10:35:00;22.25;;;9.65;;
27642;SDS011;15053;48.618;10.024;2024-01-27T10:37:27;18.73;;;7.38;;
27642;SDS011;15053;48.618;10.024;2024-01-27T10:40:01;14.85;;;6.13;;
27642;SDS011;15053;48.618;10.024;2024-01-27T10:42:29;14.75;;;6.10;;
27642;SDS011;15053;48.618;10.024;2024-01-27T10:44:59;15.27;;;5.82;;
27642;SDS011;15053;48.618;10.024;2024-01-27T10:47:27;12.82;;;5.22;;
27642;SDS011;15053;48.618;10.024;2024-01-27T10:49:55;10.75;;;4.88;;
27642;SDS011;15053;48.618;10.024;2024-01-27T10:52:24;11.95;;;5.38;;
27642;SDS011;15053;48.618;10.024;2024-01-27T10:55:01;16.98;;;5.03;;
27642;SDS011;15053;48.618;10.024;2024-01-27T10:57:30;10.40;;;4.28;;
27642;SDS011;15053;48.618;10.024;2024-01-27T10:59:59;10.95;;;4.70;;
27642;SDS011;15053;48.618;10.024;2024-01-27T11:02:28;11.23;;;4.55;;
27642;SDS011;15053;48.618;10.024;2024-01-27T11:04:58;10.50;;;4.60;;
27642;SDS011;15053;48.618;10.024;2024-01-27T11:07:28;16.17;;;8.82;;
27642;SDS011;15053;48.618;10.024;2024-01-27T11:09:58;11.77;;;5.63;;
27642;SDS011;15053;48.618;10.024;2024-01-27T11:12:25;10.32;;;3.55;;
27642;SDS011;15053;48.618;10.024;2024-01-27T11:14:52;9.23;;;3.05;;
27642;SDS011;15053;48.618;10.024;2024-01-27T11:17:19;10.98;;;4.45;;
27642;SDS011;15053;48.618;10.024;2024-01-27T11:19:46;10.15;;;3.92;;
27642;SDS011;15053;48.618;10.024;2024-01-27T11:22:28;7.72;;;4.00;;
27642;SDS011;15053;48.618;10.024;2024-01-27T11:27:39;9.88;;;4.70;;
27642;SDS011;15053;48.618;10.024;2024-01-27T11:30:12;6.57;;;3.28;;
27642;SDS011;15053;48.618;10.024;2024-01-27T11:32:53;7.38;;;3.20;;
27642;SDS011;15053;48.618;10.024;2024-01-27T11:35:21;9.25;;;4.60;;
27642;SDS011;15053;48.618;10.024;2024-01-27T11:37:48;6.43;;;3.72;;
27642;SDS011;15053;48.618;10.024;2024-01-27T11:40:15;6.78;;;3.63;;
27642;SDS011;15053;48.618;10.024;2024-01-27T11:42:42;10.55;;;4.78;;
27642;SDS011;15053;48.618;10.024;2024-01-27T11:45:09;10.00;;;3.65;;
27642;SDS011;15053;48.618;10.024;2024-01-27T11:47:36;13.10;;;4.65;;
27642;SDS011;15053;48.618;10.024;2024-01-27T11:50:03;9.73;;;4.10;;
27642;SDS011;15053;48.618;10.024;2024-01-27T11:52:30;8.43;;;3.13;;
27642;SDS011;15053;48.618;10.024;2024-01-27T11:54:56;8.52;;;3.15;;
27642;SDS011;15053;48.618;10.024;2024-01-27T11:57:24;7.25;;;2.67;;
27642;SDS011;15053;48.618;10.024;2024-01-27T11:59:51;7.20;;;3.00;;
27642;SDS011;15053;48.618;10.024;2024-01-27T12:02:18;11.73;;;4.85;;
27642;SDS011;15053;48.618;10.024;2024-01-27T12:04:46;7.32;;;3.30;;
27642;SDS011;15053;48.618;10.024;2024-01-27T12:07:14;13.32;;;4.22;;
27642;SDS011;15053;48.618;10.024;2024-01-27T12:09:40;7.45;;;4.50;;
27642;SDS011;15053;48.618;10.024;2024-01-27T12:12:07;14.27;;;4.25;;
27642;SDS011;15053;48.618;10.024;2024-01-27T12:14:39;7.00;;;3.97;;
27642;SDS011;15053;48.618;10.024;2024-01-27T12:17:11;9.40;;;3.78;;
27642;SDS011;15053;48.618;10.024;2024-01-27T12:19:38;7.60;;;3.92;;
27642;SDS011;15053;48.618;10.024;2024-01-27T12:22:17;6.78;;;3.42;;
27642;SDS011;15053;48.618;10.024;2024-01-27T12:24:49;11.15;;;4.70;;
27642;SDS011;15053;48.618;10.024;2024-01-27T12:27:16;12.30;;;3.38;;
27642;SDS011;15053;48.618;10.024;2024-01-27T12:29:43;9.65;;;3.63;;
27642;SDS011;15053;48.618;10.024;2024-01-27T12:32:10;10.05;;;3.38;;
27642;SDS011;15053;48.618;10.024;2024-01-27T12:34:40;6.07;;;3.03;;
27642;SDS011;15053;48.618;10.024;2024-01-27T12:37:08;10.07;;;3.22;;
27642;SDS011;15053;48.618;10.024;2024-01-27T12:39:37;8.68;;;3.10;;
27642;SDS011;15053;48.618;10.024;2024-01-27T12:42:04;8.00;;;3.22;;
27642;SDS011;15053;48.618;10.024;2024-01-27T12:44:31;12.57;;;4.10;;
27642;SDS011;15053;48.618;10.024;2024-01-27T12:46:58;6.82;;;2.78;;
27642;SDS011;15053;48.618;10.024;2024-01-27T12:49:24;5.85;;;2.50;;
27642;SDS011;15053;48.618;10.024;2024-01-27T12:51:51;7.75;;;3.20;;
27642;SDS011;15053;48.618;10.024;2024-01-27T12:54:18;7.03;;;2.85;;
27642;SDS011;15053;48.618;10.024;2024-01-27T12:56:45;7.60;;;2.13;;
27642;SDS011;15053;48.618;10.024;2024-01-27T12:59:12;11.23;;;2.65;;
27642;SDS011;15053;48.618;10.024;2024-01-27T13:01:40;6.95;;;2.13;;
27642;SDS011;15053;48.618;10.024;2024-01-27T13:04:07;9.63;;;2.47;;
27642;SDS011;15053;48.618;10.024;2024-01-27T13:06:33;8.00;;;2.50;;
27642;SDS011;15053;48.618;10.024;2024-01-27T13:09:00;10.38;;;2.22;;
27642;SDS011;15053;48.618;10.024;2024-01-27T13:11:27;4.78;;;2.13;;
27642;SDS011;15053;48.618;10.024;2024-01-27T13:13:53;3.95;;;2.45;;
27642;SDS011;15053;48.618;10.024;2024-01-27T13:16:20;10.63;;;2.60;;
27642;SDS011;15053;48.618;10.024;2024-01-27T13:18:47;6.35;;;2.58;;
27642;SDS011;15053;48.618;10.024;2024-01-27T13:21:14;6.68;;;2.67;;
27642;SDS011;15053;48.618;10.024;2024-01-27T13:23:40;6.75;;;3.13;;
27642;SDS011;15053;48.618;10.024;2024-01-27T13:26:07;7.40;;;2.95;;
27642;SDS011;15053;48.618;10.024;2024-01-27T13:28:45;6.38;;;2.72;;
27642;SDS011;15053;48.618;10.024;2024-01-27T13:31:12;5.70;;;2.65;;
27642;SDS011;15053;48.618;10.024;2024-01-27T13:33:39;5.35;;;2.92;;
27642;SDS011;15053;48.618;10.024;2024-01-27T13:36:06;8.50;;;3.55;;
27642;SDS011;15053;48.618;10.024;2024-01-27T13:38:33;9.18;;;2.97;;
27642;SDS011;15053;48.618;10.024;2024-01-27T13:41:01;6.30;;;2.80;;
27642;SDS011;15053;48.618;10.024;2024-01-27T13:43:28;5.97;;;2.97;;
27642;SDS011;15053;48.618;10.024;2024-01-27T13:45:54;7.40;;;3.15;;
27642;SDS011;15053;48.618;10.024;2024-01-27T13:48:21;9.85;;;3.88;;
27642;SDS011;15053;48.618;10.024;2024-01-27T13:50:48;8.15;;;3.22;;
27642;SDS011;15053;48.618;10.024;2024-01-27T13:53:14;9.13;;;3.55;;
27642;SDS011;15053;48.618;10.024;2024-01-27T13:55:41;7.07;;;3.20;;
27642;SDS011;15053;48.618;10.024;2024-01-27T13:58:10;7.90;;;3.35;;
27642;SDS011;15053;48.618;10.024;2024-01-27T14:00:37;9.95;;;3.72;;
27642;SDS011;15053;48.618;10.024;2024-01-27T14:03:03;10.15;;;4.22;;
27642;SDS011;15053;48.618;10.024;2024-01-27T14:05:30;8.30;;;3.97;;
27642;SDS011;15053;48.618;10.024;2024-01-27T14:07:57;9.45;;;4.30;;
27642;SDS011;15053;48.618;10.024;2024-01-27T14:10:24;8.27;;;4.38;;
27642;SDS011;15053;48.618;10.024;2024-01-27T14:12:51;6.75;;;3.97;;
27642;SDS011;15053;48.618;10.024;2024-01-27T14:15:18;6.97;;;3.88;;
27642;SDS011;15053;48.618;10.024;2024-01-27T14:17:44;15.00;;;3.92;;
27642;SDS011;15053;48.618;10.024;2024-01-27T14:20:12;8.10;;;3.83;;
27642;SDS011;15053;48.618;10.024;2024-01-27T14:22:39;12.52;;;4.32;;
27642;SDS011;15053;48.618;10.024;2024-01-27T14:25:05;7.60;;;3.80;;
27642;SDS011;15053;48.618;10.024;2024-01-27T14:27:34;9.32;;;4.00;;
27642;SDS011;15053;48.618;10.024;2024-01-27T14:30:01;10.65;;;4.38;;